createdAt,value
2019-05-03T00:02:12.188Z,12.60
2019-05-03T00:04:42.249Z,13.98
2019-05-03T00:07:11.809Z,12.85
2019-05-03T00:09:42.508Z,14.07
2019-05-03T00:12:12.521Z,13.20
2019-05-03T00:14:42.715Z,13.70
2019-05-03T00:17:11.721Z,14.30
2019-05-03T00:19:42.089Z,14.25
2019-05-03T00:22:12.354Z,13.53
2019-05-03T00:24:42.667Z,14.65
2019-05-03T00:27:12.595Z,14.25
2019-05-03T00:29:41.751Z,13.90
2019-05-03T00:32:12.335Z,14.50
2019-05-03T00:34:52.353Z,13.80
2019-05-03T00:37:23.004Z,14.55
2019-05-03T00:40:04.491Z,14.10
2019-05-03T00:42:33.117Z,14.43
2019-05-03T00:45:02.274Z,14.23
2019-05-03T00:47:32.690Z,13.70
2019-05-03T00:50:02.806Z,14.95
2019-05-03T00:52:31.889Z,14.35
2019-05-03T00:55:02.329Z,14.98
2019-05-03T00:57:32.244Z,14.28
2019-05-03T01:00:04.229Z,14.03
2019-05-03T01:02:32.878Z,14.50
2019-05-03T01:05:02.816Z,15.35
2019-05-03T01:07:32.017Z,14.80
2019-05-03T01:10:02.662Z,14.28
2019-05-03T01:12:32.415Z,14.85
2019-05-03T01:15:02.784Z,13.08
2019-05-03T01:17:32.568Z,14.23
2019-05-03T01:20:02.769Z,14.03
2019-05-03T01:22:32.238Z,13.95
2019-05-03T01:25:02.858Z,14.90
2019-05-03T01:27:34.151Z,14.25
2019-05-03T01:30:03.098Z,14.47
2019-05-03T01:32:32.946Z,14.33
2019-05-03T01:35:03.140Z,14.87
2019-05-03T01:37:32.136Z,14.38
2019-05-03T01:40:02.356Z,13.88
2019-05-03T01:42:32.174Z,14.38
2019-05-03T01:45:01.774Z,14.98
2019-05-03T01:47:32.568Z,16.00
2019-05-03T01:50:02.945Z,14.90
2019-05-03T01:52:41.961Z,15.03
2019-05-03T01:55:13.915Z,14.05
2019-05-03T01:57:41.911Z,15.43
2019-05-03T02:00:14.175Z,14.90
2019-05-03T02:02:47.240Z,15.40
2019-05-03T02:05:22.471Z,14.68
2019-05-03T02:07:52.885Z,15.20
2019-05-03T02:10:22.639Z,15.70
2019-05-03T02:12:52.259Z,15.15
2019-05-03T02:15:22.132Z,14.55
2019-05-03T02:17:52.059Z,15.23
2019-05-03T02:20:21.915Z,15.13
2019-05-03T02:22:52.166Z,15.35
2019-05-03T02:25:21.753Z,14.43
2019-05-03T02:27:52.587Z,15.20
2019-05-03T02:30:24.765Z,13.98
2019-05-03T02:32:53.356Z,16.50
2019-05-03T02:35:23.039Z,15.85
2019-05-03T02:37:54.408Z,15.90
2019-05-03T02:40:24.724Z,15.93
2019-05-03T02:43:11.652Z,16.70
2019-05-03T02:45:56.939Z,16.75
2019-05-03T02:48:41.930Z,17.10
2019-05-03T02:51:10.536Z,16.15
2019-05-03T02:53:39.173Z,17.27
2019-05-03T02:56:20.973Z,16.65
2019-05-03T02:58:38.172Z,16.10
2019-05-03T03:01:06.875Z,16.97
2019-05-03T03:03:36.570Z,16.25
2019-05-03T03:06:06.935Z,16.12
2019-05-03T03:08:37.708Z,16.55
2019-05-03T03:11:08.114Z,17.05
2019-05-03T03:13:38.033Z,15.85
2019-05-03T03:16:11.117Z,17.48
2019-05-03T03:18:40.919Z,16.25
2019-05-03T03:21:19.280Z,16.52
2019-05-03T03:24:16.886Z,16.50
2019-05-03T03:26:47.310Z,16.45
2019-05-03T03:29:19.145Z,17.20
2019-05-03T03:32:09.955Z,17.23
2019-05-03T03:34:56.855Z,17.20
2019-05-03T03:37:21.003Z,17.25
2019-05-03T03:39:50.422Z,18.48
2019-05-03T03:42:19.730Z,17.40
2019-05-03T03:44:48.890Z,17.55
2019-05-03T03:47:17.533Z,18.02
2019-05-03T03:49:47.395Z,19.25
2019-05-03T03:52:17.019Z,18.87
2019-05-03T03:54:47.976Z,19.85
2019-05-03T03:57:17.032Z,18.30
2019-05-03T03:59:45.806Z,19.75
2019-05-03T04:02:16.164Z,18.37
2019-05-03T04:04:45.778Z,18.90
2019-05-03T04:07:17.060Z,19.32
2019-05-03T04:09:47.629Z,18.55
2019-05-03T04:12:16.862Z,18.95
2019-05-03T04:14:50.288Z,19.17
2019-05-03T04:17:26.083Z,20.00
2019-05-03T04:19:56.247Z,18.87
2019-05-03T04:22:25.597Z,20.27
2019-05-03T04:24:55.375Z,19.00
2019-05-03T04:27:27.259Z,19.30
2019-05-03T04:29:55.826Z,19.07
2019-05-03T04:32:28.106Z,18.98
2019-05-03T04:34:56.054Z,18.00
2019-05-03T04:37:26.710Z,20.15
2019-05-03T04:39:56.070Z,19.37
2019-05-03T04:42:25.477Z,19.95
2019-05-03T04:44:56.254Z,18.82
2019-05-03T04:47:26.379Z,17.65
2019-05-03T04:49:55.505Z,16.12
2019-05-03T04:52:25.837Z,16.15
2019-05-03T04:54:56.680Z,14.47
2019-05-03T04:57:39.294Z,15.13
2019-05-03T04:59:56.273Z,14.83
2019-05-03T05:02:26.229Z,14.25
2019-05-03T05:04:55.623Z,14.35
2019-05-03T05:07:26.382Z,14.60
2019-05-03T05:09:56.229Z,14.10
2019-05-03T05:12:27.285Z,15.30
2019-05-03T05:14:57.935Z,14.20
2019-05-03T05:17:28.178Z,13.68
2019-05-03T05:20:10.235Z,13.45
2019-05-03T05:22:39.080Z,13.13
2019-05-03T05:25:25.149Z,14.33
2019-05-03T05:27:58.164Z,14.63
2019-05-03T05:30:26.843Z,13.28
2019-05-03T05:32:55.419Z,13.48
2019-05-03T05:35:24.849Z,12.78
2019-05-03T05:37:55.477Z,11.78
2019-05-03T05:40:24.596Z,12.25
2019-05-03T05:42:55.676Z,12.13
2019-05-03T05:45:25.225Z,12.60
2019-05-03T05:47:58.149Z,11.78
2019-05-03T05:50:37.323Z,11.43
2019-05-03T05:53:06.111Z,10.80
2019-05-03T05:55:52.389Z,9.88
2019-05-03T05:58:25.444Z,10.28
2019-05-03T06:00:55.197Z,9.95
2019-05-03T06:03:25.274Z,10.08
2019-05-03T06:05:55.357Z,10.48
2019-05-03T06:08:25.571Z,11.08
2019-05-03T06:11:10.563Z,9.30
2019-05-03T06:13:46.355Z,8.60
2019-05-03T06:16:28.764Z,6.78
2019-05-03T06:19:01.775Z,6.12
2019-05-03T06:21:35.307Z,4.80
2019-05-03T06:24:05.734Z,4.00
2019-05-03T06:26:36.843Z,3.65
2019-05-03T06:29:06.339Z,3.17
2019-05-03T06:31:42.397Z,3.17
2019-05-03T06:34:11.004Z,3.47
2019-05-03T06:36:40.719Z,2.80
2019-05-03T06:39:09.673Z,3.08
2019-05-03T06:41:38.309Z,3.10
2019-05-03T06:44:06.876Z,3.08
2019-05-03T06:46:45.967Z,3.25
2019-05-03T06:49:15.445Z,3.22
2019-05-03T06:51:45.638Z,3.10
2019-05-03T06:54:15.782Z,3.10
2019-05-03T06:56:45.234Z,3.30
2019-05-03T06:59:27.565Z,2.85
2019-05-03T07:02:00.785Z,3.47
2019-05-03T07:04:34.716Z,3.30
2019-05-03T07:07:15.517Z,3.30
2019-05-03T07:09:45.858Z,3.75
2019-05-03T07:12:14.943Z,3.27
2019-05-03T07:14:45.132Z,3.22
2019-05-03T07:17:14.532Z,3.42
2019-05-03T07:19:43.278Z,3.15
2019-05-03T07:22:11.908Z,3.20
2019-05-03T07:24:41.064Z,3.22
2019-05-03T07:27:10.508Z,3.30
2019-05-03T07:29:39.070Z,3.27
2019-05-03T07:32:07.716Z,3.35
2019-05-03T07:34:36.470Z,3.22
2019-05-03T07:37:05.878Z,3.37
2019-05-03T07:39:35.030Z,3.37
2019-05-03T07:42:05.402Z,3.85
2019-05-03T07:44:34.757Z,3.33
2019-05-03T07:47:04.750Z,3.77
2019-05-03T07:49:35.472Z,3.75
2019-05-03T07:52:05.896Z,3.52
2019-05-03T07:54:34.990Z,3.80
2019-05-03T07:57:05.322Z,3.95
2019-05-03T07:59:35.545Z,4.20
2019-05-03T08:02:05.586Z,4.15
2019-05-03T08:04:35.809Z,3.50
2019-05-03T08:07:04.671Z,3.87
2019-05-03T08:09:35.082Z,3.60
2019-05-03T08:12:05.077Z,4.00
2019-05-03T08:14:35.498Z,3.80
2019-05-03T08:17:05.231Z,3.60
2019-05-03T08:19:35.923Z,3.20
2019-05-03T08:22:05.137Z,3.45
2019-05-03T08:24:34.630Z,3.45
2019-05-03T08:27:05.086Z,3.45
2019-05-03T08:29:35.163Z,3.75
2019-05-03T08:32:05.684Z,3.55
2019-05-03T08:34:38.592Z,3.85
2019-05-03T08:37:10.762Z,3.75
2019-05-03T08:39:39.332Z,3.65
2019-05-03T08:42:15.534Z,3.75
2019-05-03T08:44:45.328Z,3.85
2019-05-03T08:47:15.473Z,3.60
2019-05-03T08:49:45.062Z,3.87
2019-05-03T08:52:15.637Z,3.40
2019-05-03T08:54:44.900Z,3.50
2019-05-03T08:57:14.939Z,3.22
2019-05-03T08:59:44.747Z,3.15
2019-05-03T09:02:14.921Z,2.77
2019-05-03T09:04:45.984Z,3.58
2019-05-03T09:07:15.851Z,3.00
2019-05-03T09:09:48.048Z,3.72
2019-05-03T09:12:22.419Z,2.77
2019-05-03T09:14:50.997Z,3.05
2019-05-03T09:17:19.579Z,3.10
2019-05-03T09:19:48.250Z,3.75
2019-05-03T09:22:16.896Z,2.90
2019-05-03T09:24:45.665Z,3.58
2019-05-03T09:27:15.468Z,2.90
2019-05-03T09:29:46.174Z,3.20
2019-05-03T09:32:14.779Z,2.87
2019-05-03T09:34:44.518Z,3.00
2019-05-03T09:37:15.380Z,3.40
2019-05-03T09:39:44.548Z,4.58
2019-05-03T09:42:14.957Z,5.22
2019-05-03T09:44:45.083Z,3.12
2019-05-03T09:47:14.650Z,3.10
2019-05-03T09:49:45.202Z,4.22
2019-05-03T09:52:16.111Z,3.47
2019-05-03T09:54:51.229Z,4.37
2019-05-03T09:57:19.796Z,3.58
2019-05-03T09:59:58.949Z,3.47
2019-05-03T10:02:18.569Z,3.87
2019-05-03T10:04:47.133Z,3.80
2019-05-03T10:07:15.887Z,3.08
2019-05-03T10:09:45.043Z,3.45
2019-05-03T10:12:16.182Z,3.52
2019-05-03T10:14:47.261Z,4.03
2019-05-03T10:17:22.484Z,3.10
2019-05-03T10:19:55.548Z,3.30
2019-05-03T10:22:32.529Z,3.33
2019-05-03T10:25:12.945Z,2.90
2019-05-03T10:27:47.373Z,3.05
2019-05-03T10:30:21.400Z,3.10
2019-05-03T10:32:57.558Z,3.12
2019-05-03T10:35:26.214Z,4.47
2019-05-03T10:37:55.801Z,4.95
2019-05-03T10:40:27.544Z,3.77
2019-05-03T10:42:56.477Z,3.12
2019-05-03T10:45:27.948Z,3.85
2019-05-03T10:47:55.406Z,3.52
2019-05-03T10:50:25.276Z,4.08
2019-05-03T10:53:05.197Z,3.60
2019-05-03T10:55:35.743Z,2.67
2019-05-03T10:58:19.073Z,2.90
2019-05-03T11:00:56.758Z,4.62
2019-05-03T11:03:24.635Z,3.12
2019-05-03T11:05:54.832Z,3.37
2019-05-03T11:08:23.536Z,1.90
2019-05-03T11:10:52.110Z,2.72
2019-05-03T11:13:20.766Z,3.25
2019-05-03T11:15:49.494Z,4.47
2019-05-03T11:18:18.126Z,3.72
2019-05-03T11:20:46.705Z,3.30
2019-05-03T11:23:15.302Z,5.58
2019-05-03T11:25:45.200Z,2.25
2019-05-03T11:28:21.443Z,2.12
2019-05-03T11:30:55.674Z,2.45
2019-05-03T11:33:25.724Z,2.37
2019-05-03T11:35:55.966Z,1.98
2019-05-03T11:38:28.877Z,2.90
2019-05-03T11:40:57.476Z,2.60
2019-05-03T11:43:26.045Z,2.70
2019-05-03T11:45:55.461Z,2.65
2019-05-03T11:48:25.245Z,2.65
2019-05-03T11:50:54.647Z,2.75
2019-05-03T11:53:25.035Z,2.47
2019-05-03T11:55:55.237Z,2.33
2019-05-03T11:58:27.010Z,2.60
2019-05-03T12:01:10.763Z,3.40
2019-05-03T12:03:36.632Z,2.42
2019-05-03T12:06:05.315Z,2.45
2019-05-03T12:08:34.611Z,2.20
2019-05-03T12:11:05.318Z,1.87
2019-05-03T12:13:33.522Z,2.05
2019-05-03T12:16:02.926Z,2.33
2019-05-03T12:18:46.079Z,2.40
2019-05-03T12:21:04.030Z,2.30
2019-05-03T12:23:33.952Z,2.15
2019-05-03T12:26:06.540Z,2.47
2019-05-03T12:28:35.298Z,1.90
2019-05-03T12:31:04.926Z,1.80
2019-05-03T12:33:35.471Z,2.02
2019-05-03T12:36:05.389Z,2.00
2019-05-03T12:38:34.972Z,2.27
2019-05-03T12:41:05.523Z,2.12
2019-05-03T12:43:33.956Z,2.30
2019-05-03T12:46:02.552Z,2.30
2019-05-03T12:48:31.115Z,2.42
2019-05-03T12:50:59.966Z,2.47
2019-05-03T12:53:28.799Z,2.20
2019-05-03T12:55:57.707Z,2.10
2019-05-03T12:58:27.928Z,2.00
2019-05-03T13:00:58.174Z,2.17
2019-05-03T13:03:28.372Z,2.30
2019-05-03T13:05:56.944Z,2.27
2019-05-03T13:08:35.272Z,1.72
2019-05-03T13:11:05.306Z,2.02
2019-05-03T13:13:35.900Z,1.98
2019-05-03T13:16:05.128Z,2.12
2019-05-03T13:18:35.089Z,1.80
2019-05-03T13:21:05.885Z,1.90
2019-05-03T13:23:35.319Z,2.37
2019-05-03T13:26:05.573Z,1.75
2019-05-03T13:28:34.839Z,2.20
2019-05-03T13:31:05.692Z,1.77
2019-05-03T13:33:34.824Z,2.05
2019-05-03T13:36:04.099Z,2.00
2019-05-03T13:38:34.661Z,2.02
2019-05-03T13:41:03.661Z,1.92
2019-05-03T13:43:32.331Z,1.92
2019-05-03T13:46:00.995Z,2.25
2019-05-03T13:48:41.514Z,1.67
2019-05-03T13:50:59.919Z,2.27
2019-05-03T13:53:28.564Z,2.08
2019-05-03T13:55:57.164Z,2.10
2019-05-03T13:58:26.441Z,2.40
2019-05-03T14:00:55.201Z,2.47
2019-05-03T14:03:23.895Z,2.10
2019-05-03T14:05:52.671Z,2.15
2019-05-03T14:08:21.387Z,2.05
2019-05-03T14:10:49.980Z,2.02
2019-05-03T14:13:18.545Z,2.37
2019-05-03T14:15:47.205Z,2.65
2019-05-03T14:18:15.851Z,2.55
2019-05-03T14:20:57.944Z,2.60
2019-05-03T14:23:26.519Z,1.82
2019-05-03T14:25:55.370Z,2.80
2019-05-03T14:28:25.207Z,2.02
2019-05-03T14:30:54.782Z,2.33
2019-05-03T14:33:24.854Z,1.92
2019-05-03T14:35:54.694Z,2.00
2019-05-03T14:38:25.441Z,2.10
2019-05-03T14:40:55.051Z,1.75
2019-05-03T14:43:24.878Z,2.35
2019-05-03T14:45:55.050Z,2.10
2019-05-03T14:48:24.871Z,1.90
2019-05-03T14:50:57.131Z,2.00
2019-05-03T14:53:25.479Z,2.00
2019-05-03T14:55:55.821Z,1.80
2019-05-03T14:58:40.884Z,2.17
2019-05-03T15:01:11.141Z,2.20
2019-05-03T15:03:39.703Z,1.92
2019-05-03T15:06:08.266Z,1.70
2019-05-03T15:08:37.215Z,2.02
2019-05-03T15:11:05.869Z,2.00
2019-05-03T15:13:35.011Z,1.80
2019-05-03T15:16:05.281Z,2.10
2019-05-03T15:18:34.869Z,2.55
2019-05-03T15:21:05.330Z,2.37
2019-05-03T15:23:34.680Z,2.30
2019-05-03T15:26:05.108Z,2.10
2019-05-03T15:28:35.664Z,2.00
2019-05-03T15:31:04.627Z,2.40
2019-05-03T15:33:35.185Z,2.52
2019-05-03T15:36:04.803Z,2.10
2019-05-03T15:38:34.668Z,1.95
2019-05-03T15:41:05.153Z,2.17
2019-05-03T15:43:51.515Z,2.00
2019-05-03T15:46:21.757Z,2.50
2019-05-03T15:48:51.976Z,2.20
2019-05-03T15:51:20.615Z,2.30
2019-05-03T15:53:49.190Z,2.42
2019-05-03T15:56:18.060Z,2.22
2019-05-03T15:58:46.977Z,1.72
2019-05-03T16:01:15.547Z,2.42
2019-05-03T16:03:44.883Z,2.08
2019-05-03T16:06:15.330Z,2.12
2019-05-03T16:08:44.649Z,2.10
2019-05-03T16:11:14.827Z,2.20
2019-05-03T16:13:44.832Z,2.65
2019-05-03T16:16:15.237Z,2.70
2019-05-03T16:18:44.860Z,2.50
2019-05-03T16:21:14.614Z,2.17
2019-05-03T16:23:46.286Z,2.20
2019-05-03T16:26:14.327Z,2.33
2019-05-03T16:28:46.407Z,2.50
2019-05-03T16:31:16.761Z,2.67
2019-05-03T16:33:45.752Z,2.12
2019-05-03T16:36:14.871Z,2.05
2019-05-03T16:38:44.943Z,2.15
2019-05-03T16:41:17.493Z,2.20
2019-05-03T16:43:45.539Z,2.00
2019-05-03T16:46:14.607Z,2.08
2019-05-03T16:48:44.838Z,2.33
2019-05-03T16:51:15.084Z,2.02
2019-05-03T16:53:44.594Z,2.65
2019-05-03T16:56:16.569Z,2.45
2019-05-03T16:58:44.668Z,2.27
2019-05-03T17:01:17.478Z,2.35
2019-05-03T17:03:45.761Z,2.55
2019-05-03T17:06:22.202Z,2.27
2019-05-03T17:09:09.996Z,2.50
2019-05-03T17:11:38.672Z,2.17
2019-05-03T17:14:07.322Z,2.33
2019-05-03T17:16:36.813Z,2.22
2019-05-03T17:19:05.961Z,2.20
2019-05-03T17:21:35.002Z,2.27
2019-05-03T17:24:04.352Z,2.35
2019-05-03T17:26:35.142Z,2.22
2019-05-03T17:29:04.646Z,2.12
2019-05-03T17:31:35.025Z,2.10
2019-05-03T17:34:05.378Z,2.55
2019-05-03T17:36:34.405Z,2.27
2019-05-03T17:39:07.142Z,2.20
2019-05-03T17:41:37.366Z,2.58
2019-05-03T17:44:07.872Z,2.35
2019-05-03T17:46:36.774Z,3.30
2019-05-03T17:49:05.385Z,2.98
2019-05-03T17:51:50.722Z,2.47
2019-05-03T17:54:26.931Z,2.95
2019-05-03T17:57:04.601Z,2.75
2019-05-03T17:59:35.156Z,2.50
2019-05-03T18:02:21.636Z,2.85
2019-05-03T18:05:09.110Z,2.70
2019-05-03T18:07:47.889Z,2.70
2019-05-03T18:10:16.613Z,2.45
2019-05-03T18:12:45.375Z,3.00
2019-05-03T18:15:14.790Z,2.72
2019-05-03T18:17:44.484Z,2.80
2019-05-03T18:20:14.948Z,2.85
2019-05-03T18:22:43.622Z,2.83
2019-05-03T18:25:14.179Z,3.35
2019-05-03T18:27:44.484Z,3.60
2019-05-03T18:30:14.386Z,3.35
2019-05-03T18:32:42.988Z,3.10
2019-05-03T18:35:11.622Z,2.70
2019-05-03T18:37:40.208Z,3.27
2019-05-03T18:40:09.018Z,3.83
2019-05-03T18:42:47.223Z,3.42
2019-05-03T18:45:26.074Z,3.40
2019-05-03T18:47:54.674Z,3.10
2019-05-03T18:50:23.249Z,3.42
2019-05-03T18:52:51.812Z,2.77
2019-05-03T18:55:20.478Z,3.10
2019-05-03T18:57:49.052Z,2.80
2019-05-03T19:00:19.331Z,3.37
2019-05-03T19:02:48.101Z,3.12
2019-05-03T19:05:18.318Z,3.50
2019-05-03T19:08:04.537Z,3.33
2019-05-03T19:10:37.626Z,2.90
2019-05-03T19:13:16.401Z,3.60
2019-05-03T19:15:45.064Z,2.98
2019-05-03T19:18:15.480Z,3.10
2019-05-03T19:20:45.566Z,2.95
2019-05-03T19:23:15.388Z,2.80
2019-05-03T19:25:49.011Z,2.90
2019-05-03T19:28:14.263Z,2.45
2019-05-03T19:30:45.713Z,3.45
2019-05-03T19:33:14.272Z,2.70
2019-05-03T19:35:44.417Z,3.10
2019-05-03T19:38:15.075Z,2.80
2019-05-03T19:40:45.341Z,3.08
2019-05-03T19:43:15.230Z,3.35
2019-05-03T19:45:44.926Z,3.15
2019-05-03T19:48:14.774Z,3.08
2019-05-03T19:50:44.802Z,2.95
2019-05-03T19:53:16.030Z,3.65
2019-05-03T19:55:50.382Z,3.17
2019-05-03T19:58:16.915Z,3.42
2019-05-03T20:01:05.624Z,3.70
2019-05-03T20:03:35.648Z,3.40
2019-05-03T20:06:06.054Z,3.37
2019-05-03T20:08:36.260Z,3.35
2019-05-03T20:11:18.269Z,3.62
2019-05-03T20:13:46.988Z,3.58
2019-05-03T20:16:15.789Z,4.28
2019-05-03T20:18:45.447Z,4.80
2019-05-03T20:21:14.951Z,4.70
2019-05-03T20:23:44.762Z,4.65
2019-05-03T20:26:14.893Z,4.53
2019-05-03T20:28:44.853Z,4.25
2019-05-03T20:31:13.737Z,4.33
2019-05-03T20:33:42.305Z,4.30
2019-05-03T20:36:10.934Z,4.53
2019-05-03T20:38:39.816Z,4.90
2019-05-03T20:41:08.373Z,5.22
2019-05-03T20:43:44.554Z,5.20
2019-05-03T20:46:15.145Z,5.15
2019-05-03T20:48:47.399Z,5.15
2019-05-03T20:51:15.994Z,4.80
2019-05-03T20:53:44.946Z,5.30
2019-05-03T20:56:15.327Z,4.97
2019-05-03T20:58:46.071Z,5.08
2019-05-03T21:01:15.272Z,4.60
2019-05-03T21:03:45.004Z,4.42
2019-05-03T21:06:15.274Z,4.95
2019-05-03T21:08:52.546Z,4.28
2019-05-03T21:11:14.792Z,5.05
2019-05-03T21:13:44.972Z,4.87
2019-05-03T21:16:30.452Z,4.90
2019-05-03T21:19:04.875Z,5.03
2019-05-03T21:21:40.902Z,4.65
2019-05-03T21:24:20.229Z,4.92
2019-05-03T21:26:48.890Z,4.85
2019-05-03T21:29:17.515Z,4.70
2019-05-03T21:31:46.125Z,4.70
2019-05-03T21:34:14.892Z,4.87
2019-05-03T21:36:45.215Z,4.28
2019-05-03T21:39:14.637Z,4.70
2019-05-03T21:41:45.088Z,5.17
2019-05-03T21:44:15.485Z,4.92
2019-05-03T21:46:45.770Z,5.22
2019-05-03T21:49:15.971Z,6.55
2019-05-03T21:51:44.962Z,7.62
2019-05-03T21:54:15.326Z,7.83
2019-05-03T21:56:44.697Z,7.30
2019-05-03T21:59:13.373Z,9.58
2019-05-03T22:01:45.660Z,10.30
2019-05-03T22:04:15.571Z,10.45
2019-05-03T22:06:44.485Z,10.08
2019-05-03T22:09:13.133Z,10.08
2019-05-03T22:11:42.023Z,10.15
2019-05-03T22:14:12.222Z,10.05
2019-05-03T22:16:42.446Z,10.15
2019-05-03T22:19:12.040Z,9.90
2019-05-03T22:21:42.401Z,10.45
2019-05-03T22:24:15.643Z,10.08
2019-05-03T22:26:48.744Z,9.18
2019-05-03T22:29:17.484Z,9.50
2019-05-03T22:31:46.047Z,9.50
2019-05-03T22:34:15.193Z,9.25
2019-05-03T22:36:44.410Z,9.88
2019-05-03T22:39:13.308Z,9.08
2019-05-03T22:41:43.697Z,9.30
2019-05-03T22:44:12.263Z,9.93
2019-05-03T22:46:40.902Z,8.83
2019-05-03T22:49:09.545Z,9.70
2019-05-03T22:51:38.086Z,9.50
2019-05-03T22:54:06.773Z,9.98
2019-05-03T22:56:35.746Z,9.58
2019-05-03T22:59:05.538Z,9.93
2019-05-03T23:01:35.254Z,9.13
2019-05-03T23:04:05.577Z,9.85
2019-05-03T23:06:34.435Z,10.40
2019-05-03T23:09:05.094Z,9.78
2019-05-03T23:11:35.302Z,9.80
2019-05-03T23:14:05.033Z,9.93
2019-05-03T23:16:35.607Z,9.78
2019-05-03T23:19:05.522Z,10.50
2019-05-03T23:21:45.109Z,10.95
2019-05-03T23:24:15.388Z,11.70
2019-05-03T23:26:45.138Z,10.72
2019-05-03T23:29:14.372Z,11.50
2019-05-03T23:31:44.836Z,11.35
2019-05-03T23:34:13.395Z,11.65
2019-05-03T23:36:42.417Z,12.90
2019-05-03T23:39:11.089Z,13.08
2019-05-03T23:41:39.717Z,12.20
2019-05-03T23:44:08.334Z,12.73
2019-05-03T23:46:38.621Z,11.57
2019-05-03T23:49:07.237Z,11.22
2019-05-03T23:51:46.442Z,10.70
2019-05-03T23:54:16.207Z,11.08
2019-05-03T23:56:45.855Z,11.40
2019-05-03T23:59:15.534Z,10.15
